Time;durP1;ratioP1;P1;durP2;ratioP2;P2;SDS_P1;SDS_P2;PMS_P1;PMS_P2;Temp;Humidity;BMP_temperature;BMP_pressure;BME280_temperature;BME280_humidity;BME280_pressure;Samples;Min_cycle;Max_cycle;Signal;HPM_P1;HPM_P2
2021/12/30 00:00:44;;;;;;;18.23;9.13;;;-2.40;87.40;;;;;;5055704;28;20032;-76
2021/12/30 00:03:10;;;;;;;18.50;9.07;;;-2.50;87.40;;;;;;5054359;28;20021;-74
2021/12/30 00:05:37;;;;;;;23.05;9.55;;;-2.40;87.40;;;;;;5054746;28;20021;-74
2021/12/30 00:08:03;;;;;;;23.15;9.93;;;-2.40;87.50;;;;;;5054170;28;20039;-73
2021/12/30 00:10:29;;;;;;;21.63;9.18;;;-2.40;87.50;;;;;;5055218;28;20025;-75
2021/12/30 00:12:55;;;;;;;19.50;10.18;;;-2.40;87.60;;;;;;5055464;28;20102;-75
2021/12/30 00:15:21;;;;;;;19.73;9.07;;;-2.40;87.60;;;;;;5055341;28;20374;-75
2021/12/30 00:17:47;;;;;;;19.67;8.95;;;-2.40;87.70;;;;;;5055501;28;20104;-75
2021/12/30 00:20:14;;;;;;;23.25;10.43;;;-2.40;87.60;;;;;;5054098;28;20463;-72
2021/12/30 00:22:41;;;;;;;18.58;8.95;;;-2.40;87.50;;;;;;5053958;28;20029;-78
2021/12/30 00:25:08;;;;;;;19.48;9.23;;;-2.40;87.50;;;;;;5053824;28;20056;-75
2021/12/30 00:27:34;;;;;;;23.85;9.63;;;-2.40;87.60;;;;;;5053547;28;20036;-80
2021/12/30 00:29:59;;;;;;;19.55;9.77;;;-2.40;87.50;;;;;;5053929;28;20025;-74
2021/12/30 00:32:25;;;;;;;22.85;10.77;;;-2.40;87.60;;;;;;5055204;28;20053;-73
2021/12/30 00:34:51;;;;;;;24.75;10.77;;;-2.40;87.80;;;;;;5054060;28;20025;-74
2021/12/30 00:37:17;;;;;;;21.60;10.55;;;-2.30;87.90;;;;;;5055021;28;20029;-72
2021/12/30 00:39:42;;;;;;;20.42;10.20;;;-2.30;88.00;;;;;;5053626;28;20056;-73
2021/12/30 00:42:08;;;;;;;24.20;10.35;;;-2.30;87.80;;;;;;5054608;28;20024;-73
2021/12/30 00:44:34;;;;;;;23.23;9.07;;;-2.30;87.60;;;;;;5055112;28;20055;-73
2021/12/30 00:46:59;;;;;;;18.83;8.45;;;-2.30;87.50;;;;;;5055005;28;20037;-75
2021/12/30 00:49:26;;;;;;;21.25;9.40;;;-2.30;87.60;;;;;;5055021;28;20124;-74
2021/12/30 00:51:52;;;;;;;20.20;9.15;;;-2.30;87.50;;;;;;5053495;28;20029;-73
2021/12/30 00:54:19;;;;;;;18.40;10.27;;;-2.30;87.60;;;;;;5053269;28;20040;-73
2021/12/30 00:56:45;;;;;;;23.20;10.80;;;-2.30;87.60;;;;;;5053042;28;20036;-73
2021/12/30 00:59:11;;;;;;;24.15;11.20;;;-2.30;87.80;;;;;;5053337;28;20063;-78
2021/12/30 01:01:37;;;;;;;24.77;10.52;;;-2.30;87.80;;;;;;5054845;28;20104;-73
2021/12/30 01:04:04;;;;;;;26.27;9.93;;;-2.20;87.80;;;;;;5053277;28;20075;-72
2021/12/30 01:06:30;;;;;;;22.73;10.13;;;-2.30;87.50;;;;;;5053136;28;20067;-74
2021/12/30 01:08:56;;;;;;;27.27;10.82;;;-2.20;87.60;;;;;;5052918;28;20025;-75
2021/12/30 01:11:24;;;;;;;21.38;10.52;;;-2.20;87.70;;;;;;5053104;28;20036;-74
2021/12/30 01:13:58;;;;;;;25.80;10.77;;;-2.20;88.10;;;;;;5054605;28;20048;-74
2021/12/30 01:16:25;;;;;;;31.15;12.90;;;-2.20;87.60;;;;;;5053413;28;20094;-74
2021/12/30 01:19:04;;;;;;;41.75;15.38;;;-2.20;87.50;;;;;;5052497;28;20027;-77
2021/12/30 01:21:34;;;;;;;40.10;15.35;;;-2.20;88.10;;;;;;5053230;28;20032;-76
2021/12/30 01:24:01;;;;;;;43.00;16.27;;;-2.10;87.80;;;;;;5053799;28;20083;-73
2021/12/30 01:26:27;;;;;;;40.47;17.23;;;-2.10;87.50;;;;;;5052847;28;20055;-73
2021/12/30 01:28:53;;;;;;;30.98;13.57;;;-2.00;87.20;;;;;;5053902;28;20036;-71
2021/12/30 01:31:19;;;;;;;31.77;11.20;;;-2.10;87.00;;;;;;5052935;28;20056;-72
2021/12/30 01:33:47;;;;;;;26.10;12.48;;;-2.10;87.00;;;;;;5054055;28;20033;-72
2021/12/30 01:36:16;;;;;;;31.33;11.38;;;-2.10;87.20;;;;;;5052655;28;20483;-73
2021/12/30 01:38:45;;;;;;;30.55;13.10;;;-2.10;87.30;;;;;;5054002;28;20025;-74
2021/12/30 01:41:10;;;;;;;26.52;11.75;;;-2.10;87.30;;;;;;5053641;28;20387;-77
2021/12/30 01:43:37;;;;;;;28.95;11.38;;;-2.10;87.80;;;;;;5053910;28;20025;-73
2021/12/30 01:46:06;;;;;;;25.63;11.20;;;-2.00;87.60;;;;;;5053808;28;20037;-76
2021/12/30 01:48:31;;;;;;;28.00;11.13;;;-2.00;87.20;;;;;;5052548;28;20368;-72
2021/12/30 01:50:57;;;;;;;27.85;11.77;;;-2.10;87.20;;;;;;5053751;28;20074;-73
2021/12/30 01:53:23;;;;;;;23.65;11.73;;;-2.10;87.30;;;;;;5052500;28;20463;-73
2021/12/30 01:55:50;;;;;;;26.80;12.30;;;-2.10;87.90;;;;;;5053725;28;20025;-73
2021/12/30 01:58:16;;;;;;;27.00;11.98;;;-2.20;87.50;;;;;;5052658;28;20025;-72
2021/12/30 02:00:44;;;;;;;20.65;11.73;;;-2.10;87.70;;;;;;5052142;28;20075;-74
2021/12/30 02:03:11;;;;;;;25.27;10.63;;;-2.10;87.60;;;;;;5035990;28;20025;-78
2021/12/30 02:05:38;;;;;;;26.42;11.55;;;-2.10;87.60;;;;;;5032010;28;20029;-73
2021/12/30 02:08:08;;;;;;;25.15;11.73;;;-2.10;87.70;;;;;;5033458;28;20033;-74
2021/12/30 02:10:35;;;;;;;29.02;11.98;;;-2.10;88.00;;;;;;5033901;28;20029;-74
2021/12/30 02:13:01;;;;;;;28.77;12.32;;;-2.00;87.70;;;;;;5033234;28;20054;-72
2021/12/30 02:15:27;;;;;;;26.98;11.85;;;-2.00;87.40;;;;;;5032763;28;20026;-73
2021/12/30 02:17:54;;;;;;;26.83;12.27;;;-2.00;87.20;;;;;;5032040;28;20026;-73
2021/12/30 02:20:43;;;;;;;27.88;12.48;;;-2.00;87.30;;;;;;5033756;28;20057;-75
2021/12/30 02:23:09;;;;;;;27.05;12.48;;;-2.00;87.30;;;;;;5033482;28;20487;-72
2021/12/30 02:25:36;;;;;;;24.13;10.65;;;-2.10;87.20;;;;;;5033377;28;20030;-73
2021/12/30 02:28:06;;;;;;;27.30;11.38;;;-2.10;87.40;;;;;;5032139;28;20030;-73
2021/12/30 02:30:32;;;;;;;21.25;11.13;;;-2.10;87.60;;;;;;5032447;28;20033;-73
2021/12/30 02:32:58;;;;;;;25.40;13.13;;;-2.00;87.80;;;;;;5037474;28;20116;-74
2021/12/30 02:35:23;;;;;;;27.67;11.85;;;-2.00;87.50;;;;;;5037450;28;20416;-74
2021/12/30 02:37:50;;;;;;;25.20;12.48;;;-2.00;87.40;;;;;;5037630;28;20029;-74
2021/12/30 02:40:26;;;;;;;32.05;13.43;;;-2.00;87.20;;;;;;5037306;28;20463;-74
2021/12/30 02:42:52;;;;;;;27.90;12.05;;;-2.00;87.40;;;;;;5036998;28;20486;-72
2021/12/30 02:45:18;;;;;;;28.50;11.57;;;-2.00;87.50;;;;;;5037041;28;20057;-77
2021/12/30 02:47:43;;;;;;;29.08;13.05;;;-2.00;87.30;;;;;;5037168;28;20125;-75
2021/12/30 02:50:09;;;;;;;24.02;11.05;;;-2.00;87.30;;;;;;5037302;28;20037;-76
2021/12/30 02:52:35;;;;;;;30.60;13.15;;;-2.10;87.30;;;;;;5035723;28;20048;-74
2021/12/30 02:55:00;;;;;;;37.30;13.98;;;-2.10;87.30;;;;;;5037063;28;20029;-75
2021/12/30 02:57:26;;;;;;;28.73;12.63;;;-2.10;87.60;;;;;;5035445;28;20029;-72
2021/12/30 02:59:52;;;;;;;37.22;15.73;;;-2.10;87.70;;;;;;5036294;28;20036;-77
2021/12/30 03:02:18;;;;;;;50.15;18.33;;;-2.00;87.70;;;;;;5037000;28;20525;-72
2021/12/30 03:04:43;;;;;;;46.95;18.42;;;-2.00;87.50;;;;;;5035970;28;20356;-73
2021/12/30 03:07:09;;;;;;;48.88;17.60;;;-2.00;87.50;;;;;;5037220;28;20037;-77
2021/12/30 03:09:35;;;;;;;36.85;15.40;;;-2.00;87.40;;;;;;5036826;28;20353;-72
2021/12/30 03:12:00;;;;;;;44.25;15.27;;;-1.90;87.70;;;;;;5035289;28;20052;-74
2021/12/30 03:14:28;;;;;;;31.85;14.80;;;-1.80;87.40;;;;;;5035507;28;20030;-72
2021/12/30 03:16:54;;;;;;;34.75;14.10;;;-1.90;86.90;;;;;;5036848;28;20022;-73
2021/12/30 03:19:20;;;;;;;38.08;15.18;;;-1.90;87.00;;;;;;5036793;28;20033;-73
2021/12/30 03:21:46;;;;;;;34.38;14.63;;;-1.90;87.00;;;;;;5035408;28;20064;-73
2021/12/30 03:24:12;;;;;;;27.48;12.30;;;-1.90;86.90;;;;;;5036268;28;20026;-72
2021/12/30 03:26:38;;;;;;;32.00;12.13;;;-1.90;87.10;;;;;;5035050;28;20487;-73
2021/12/30 03:29:04;;;;;;;31.77;11.90;;;-1.90;86.90;;;;;;5036449;28;20116;-74
2021/12/30 03:31:30;;;;;;;35.58;12.73;;;-2.00;86.80;;;;;;5036291;28;20021;-78
2021/12/30 03:33:56;;;;;;;23.38;12.45;;;-2.00;86.80;;;;;;5036259;28;20036;-74
2021/12/30 03:36:22;;;;;;;22.85;11.05;;;-2.00;87.20;;;;;;5034830;28;20029;-73
2021/12/30 03:38:50;;;;;;;30.25;12.73;;;-1.90;87.30;;;;;;5035965;28;20037;-76
2021/12/30 03:41:19;;;;;;;32.67;14.23;;;-1.90;87.00;;;;;;5034588;28;20412;-73
2021/12/30 03:43:45;;;;;;;28.50;13.27;;;-1.90;86.70;;;;;;5034651;28;20025;-74
2021/12/30 03:46:12;;;;;;;30.13;11.57;;;-1.90;86.70;;;;;;5036098;28;20044;-73
2021/12/30 03:48:42;;;;;;;32.95;13.25;;;-1.90;86.80;;;;;;5034713;28;20025;-72
2021/12/30 03:51:11;;;;;;;29.23;14.10;;;-1.90;86.80;;;;;;5036202;28;20095;-73
2021/12/30 03:53:41;;;;;;;27.17;12.23;;;-1.90;86.80;;;;;;5035872;28;20041;-71
2021/12/30 03:56:08;;;;;;;28.52;13.77;;;-2.00;87.00;;;;;;5034696;28;20033;-74
2021/12/30 03:58:34;;;;;;;28.92;12.88;;;-1.90;87.10;;;;;;5034960;28;20087;-72
2021/12/30 04:01:00;;;;;;;31.50;13.35;;;-1.90;87.10;;;;;;5035864;28;20097;-75
2021/12/30 04:03:26;;;;;;;32.15;12.95;;;-1.90;87.10;;;;;;5034392;28;20041;-74
2021/12/30 04:05:51;;;;;;;28.92;12.15;;;-1.90;87.10;;;;;;5035666;28;20025;-72
2021/12/30 04:08:17;;;;;;;33.63;13.15;;;-1.90;87.30;;;;;;5034356;28;20125;-73
2021/12/30 04:10:43;;;;;;;26.42;11.30;;;-1.90;87.00;;;;;;5034328;28;20025;-76
2021/12/30 04:13:09;;;;;;;20.58;10.35;;;-1.90;86.60;;;;;;5035225;28;20183;-74
2021/12/30 04:15:34;;;;;;;22.92;8.07;;;-2.00;86.50;;;;;;5035540;28;20443;-73
2021/12/30 04:18:00;;;;;;;20.52;8.65;;;-2.00;86.60;;;;;;5033948;28;20083;-71
2021/12/30 04:20:26;;;;;;;17.30;8.32;;;-2.10;86.70;;;;;;5035509;28;20030;-74
2021/12/30 04:22:51;;;;;;;19.90;9.65;;;-2.10;86.70;;;;;;5034112;28;20025;-72
2021/12/30 04:25:17;;;;;;;17.02;7.90;;;-2.10;86.60;;;;;;5035771;28;20095;-77
2021/12/30 04:27:44;;;;;;;21.92;9.63;;;-2.10;86.60;;;;;;5035399;28;20038;-77
2021/12/30 04:30:12;;;;;;;19.38;9.43;;;-2.10;86.70;;;;;;5034136;28;20029;-77
2021/12/30 04:32:38;;;;;;;21.55;8.90;;;-2.10;86.70;;;;;;5034920;28;20140;-75
2021/12/30 04:35:06;;;;;;;19.02;9.73;;;-2.10;86.90;;;;;;5034938;28;20045;-75
2021/12/30 04:37:32;;;;;;;24.73;11.55;;;-2.10;86.70;;;;;;5033971;28;20026;-76
2021/12/30 04:39:58;;;;;;;18.48;7.80;;;-2.10;86.70;;;;;;5033943;28;20040;-75
2021/12/30 04:42:23;;;;;;;22.73;9.07;;;-2.10;86.70;;;;;;5033721;28;20117;-75
2021/12/30 04:44:49;;;;;;;29.65;9.70;;;-2.10;86.70;;;;;;5033677;28;20030;-73
2021/12/30 04:47:16;;;;;;;19.90;9.43;;;-2.10;86.50;;;;;;5033480;28;20472;-74
2021/12/30 04:49:42;;;;;;;23.75;10.27;;;-2.10;86.60;;;;;;5033372;28;20036;-73
2021/12/30 04:52:07;;;;;;;27.15;12.65;;;-2.10;86.70;;;;;;5033598;28;20098;-75
2021/12/30 04:54:33;;;;;;;38.35;16.13;;;-2.10;87.00;;;;;;5033842;28;20104;-74
2021/12/30 04:56:59;;;;;;;35.53;15.25;;;-2.10;86.90;;;;;;5033344;28;20029;-73
2021/12/30 04:59:25;;;;;;;45.00;18.75;;;-2.00;86.70;;;;;;5033396;28;20057;-73
2021/12/30 05:01:51;;;;;;;48.53;18.92;;;-2.00;86.80;;;;;;5033262;28;20022;-73
2021/12/30 05:04:17;;;;;;;62.50;22.77;;;-2.00;87.10;;;;;;5033368;28;20356;-75
2021/12/30 05:06:43;;;;;;;52.15;21.05;;;-1.90;86.90;;;;;;5034293;28;20095;-74
2021/12/30 05:09:09;;;;;;;51.50;19.17;;;-1.90;86.70;;;;;;5033597;28;20471;-77
2021/12/30 05:11:41;;;;;;;44.28;19.38;;;-1.90;86.70;;;;;;5032791;28;20033;-76
2021/12/30 05:14:09;;;;;;;31.10;13.05;;;-1.80;86.70;;;;;;5034372;28;20069;-74
2021/12/30 05:16:35;;;;;;;31.73;14.43;;;-1.80;86.70;;;;;;5036801;28;20066;-77
2021/12/30 05:19:00;;;;;;;30.23;14.60;;;-1.80;86.60;;;;;;5043783;28;20104;-74
2021/12/30 05:21:26;;;;;;;33.67;14.95;;;-1.80;86.50;;;;;;5039399;28;20522;-74
2021/12/30 05:23:52;;;;;;;29.52;14.68;;;-1.70;86.40;;;;;;5053940;28;20029;-74
2021/12/30 05:26:18;;;;;;;39.85;15.65;;;-1.70;86.70;;;;;;5053704;28;20467;-75
2021/12/30 05:28:44;;;;;;;39.17;17.75;;;-1.60;86.60;;;;;;5052248;28;20024;-74
2021/12/30 05:31:10;;;;;;;31.30;15.25;;;-1.60;85.80;;;;;;5052183;28;20028;-74
2021/12/30 05:33:36;;;;;;;30.33;13.60;;;-1.70;85.60;;;;;;5033420;28;20380;-76
2021/12/30 05:36:02;;;;;;;34.70;14.65;;;-1.70;85.90;;;;;;5033933;28;20030;-74
2021/12/30 05:38:28;;;;;;;29.70;12.30;;;-1.70;86.40;;;;;;5031877;28;20124;-76
2021/12/30 05:40:54;;;;;;;34.20;14.60;;;-1.60;86.20;;;;;;5035589;28;20029;-75
2021/12/30 05:43:19;;;;;;;29.45;13.10;;;-1.50;85.80;;;;;;5034302;28;20036;-77
2021/12/30 05:45:45;;;;;;;37.75;14.40;;;-1.50;85.50;;;;;;5032360;28;20026;-73
2021/12/30 05:48:11;;;;;;;41.40;15.27;;;-1.50;85.60;;;;;;5032209;28;20490;-73
2021/12/30 05:50:37;;;;;;;38.00;15.95;;;-1.50;85.40;;;;;;5033312;28;20075;-79
2021/12/30 05:53:03;;;;;;;38.97;15.95;;;-1.40;85.10;;;;;;5032776;28;20036;-78
2021/12/30 05:55:29;;;;;;;38.50;17.02;;;-1.40;85.00;;;;;;5051087;28;20494;-75
2021/12/30 05:57:56;;;;;;;26.17;13.73;;;-1.40;84.70;;;;;;5053745;28;20032;-77
2021/12/30 06:00:24;;;;;;;38.00;15.30;;;-1.50;84.70;;;;;;5045260;28;20034;-80
2021/12/30 06:02:51;;;;;;;36.47;15.50;;;-1.60;84.80;;;;;;5032008;28;20087;-80
2021/12/30 06:05:17;;;;;;;40.28;18.05;;;-1.70;84.70;;;;;;5031894;28;20036;-76
2021/12/30 06:07:43;;;;;;;44.65;19.35;;;-1.80;85.30;;;;;;5033531;28;20061;-80
2021/12/30 06:10:10;;;;;;;45.58;17.77;;;-1.90;85.80;;;;;;5038372;28;20025;-79
2021/12/30 06:12:35;;;;;;;49.22;22.67;;;-1.80;86.20;;;;;;5052041;28;20136;-77
2021/12/30 06:15:01;;;;;;;48.15;19.98;;;-1.80;86.70;;;;;;5035326;28;20083;-78
2021/12/30 06:17:27;;;;;;;56.70;23.10;;;-1.70;86.50;;;;;;5033851;28;20029;-77
2021/12/30 06:19:53;;;;;;;50.45;22.48;;;-1.70;86.40;;;;;;5037802;28;20026;-77
2021/12/30 06:22:18;;;;;;;52.28;23.05;;;-1.70;86.50;;;;;;5052015;28;20519;-79
2021/12/30 06:24:44;;;;;;;50.97;21.30;;;-1.70;86.80;;;;;;5045961;28;20454;-78
2021/12/30 06:27:10;;;;;;;48.85;21.50;;;-1.60;87.30;;;;;;5031748;28;20041;-78
2021/12/30 06:29:37;;;;;;;40.40;19.27;;;-1.50;86.50;;;;;;5044743;28;20383;-77
2021/12/30 06:32:04;;;;;;;47.35;17.00;;;-1.50;86.40;;;;;;5035603;28;20026;-76
2021/12/30 06:34:29;;;;;;;23.75;11.65;;;-1.40;86.20;;;;;;5033055;28;20053;-74
2021/12/30 06:36:55;;;;;;;33.25;16.20;;;-1.30;86.50;;;;;;5041651;28;20076;-81
2021/12/30 06:39:21;;;;;;;33.90;14.65;;;-1.20;85.80;;;;;;5033079;28;20032;-78
2021/12/30 06:41:47;;;;;;;45.15;19.73;;;-1.30;85.00;;;;;;5035767;28;20379;-78
2021/12/30 06:44:12;;;;;;;40.63;17.15;;;-1.30;85.30;;;;;;5056792;28;20025;-79
2021/12/30 06:46:38;;;;;;;38.20;15.70;;;-1.30;86.30;;;;;;5049465;28;20037;-80
2021/12/30 06:49:09;;;;;;;36.92;15.60;;;-1.20;86.70;;;;;;5033032;28;20424;-78
2021/12/30 06:51:35;;;;;;;51.72;36.15;;;-1.10;86.60;;;;;;5044387;28;20029;-77
2021/12/30 06:54:03;;;;;;;38.83;16.15;;;-1.10;87.50;;;;;;5033209;28;20387;-77
2021/12/30 06:56:29;;;;;;;34.00;15.30;;;-0.90;87.80;;;;;;5036063;28;20121;-78
2021/12/30 06:58:55;;;;;;;42.22;17.60;;;-0.80;88.00;;;;;;5044626;28;20061;-80
2021/12/30 07:01:21;;;;;;;30.60;13.85;;;-0.80;87.20;;;;;;5038155;28;20033;-80
2021/12/30 07:03:46;;;;;;;34.45;14.48;;;-0.90;86.40;;;;;;5040099;28;20021;-81
2021/12/30 07:06:12;;;;;;;31.42;13.13;;;-0.90;86.20;;;;;;5038473;28;20148;-85
2021/12/30 07:08:38;;;;;;;27.77;11.80;;;-1.00;86.40;;;;;;5055073;28;20099;-78
2021/12/30 07:11:04;;;;;;;27.67;11.15;;;-1.00;86.50;;;;;;5054961;28;20092;-76
2021/12/30 07:13:29;;;;;;;28.02;13.18;;;-0.90;87.20;;;;;;5041244;28;20133;-76
2021/12/30 07:15:55;;;;;;;27.80;12.90;;;-0.80;87.00;;;;;;5034011;28;20438;-73
2021/12/30 07:18:21;;;;;;;31.80;14.07;;;-0.80;86.10;;;;;;5052734;28;20017;-77
2021/12/30 07:20:46;;;;;;;29.50;14.63;;;-0.80;86.10;;;;;;5056838;28;20055;-74
2021/12/30 07:23:12;;;;;;;43.85;16.50;;;-0.80;86.30;;;;;;5069632;28;20486;-76
2021/12/30 07:25:38;;;;;;;41.97;15.73;;;-0.70;86.10;;;;;;5050698;28;20033;-84
2021/12/30 07:28:04;;;;;;;35.35;15.88;;;-0.70;85.60;;;;;;5052030;28;20087;-80
2021/12/30 07:30:30;;;;;;;31.17;13.90;;;-0.70;86.10;;;;;;5042802;28;20055;-78
2021/12/30 07:32:56;;;;;;;36.28;17.13;;;-0.60;86.00;;;;;;5035594;28;20033;-81
2021/12/30 07:35:22;;;;;;;30.13;14.68;;;-0.50;85.60;;;;;;5048554;28;20488;-80
2021/12/30 07:37:49;;;;;;;38.25;14.95;;;-0.40;85.00;;;;;;5051509;28;20028;-79
2021/12/30 07:40:16;;;;;;;34.13;16.58;;;-0.50;84.60;;;;;;5052188;28;20479;-80
2021/12/30 07:42:42;;;;;;;31.95;15.30;;;-0.50;84.70;;;;;;5054211;28;20104;-76
2021/12/30 07:45:09;;;;;;;33.70;14.15;;;-0.40;85.10;;;;;;5055933;28;20032;-80
2021/12/30 07:47:35;;;;;;;39.25;17.67;;;-0.30;85.60;;;;;;5053279;28;20553;-78
2021/12/30 07:50:01;;;;;;;45.00;17.13;;;-0.10;85.30;;;;;;5048987;28;20060;-80
2021/12/30 07:52:27;;;;;;;37.70;18.42;;;-0.10;84.40;;;;;;5052731;28;20102;-77
2021/12/30 07:54:53;;;;;;;39.25;17.50;;;-0.10;83.60;;;;;;5047137;28;20025;-81
2021/12/30 07:57:21;;;;;;;33.40;15.23;;;-0.20;83.50;;;;;;5036310;28;20063;-80
2021/12/30 07:59:51;;;;;;;37.05;16.58;;;-0.10;84.30;;;;;;5038172;28;20112;-80
2021/12/30 08:02:17;;;;;;;45.75;17.55;;;0.00;84.30;;;;;;5041013;28;20025;-79
2021/12/30 08:04:43;;;;;;;32.45;15.23;;;0.00;83.70;;;;;;5041139;28;20064;-80
2021/12/30 08:07:09;;;;;;;57.63;36.50;;;0.10;83.90;;;;;;5045930;28;20041;-77
2021/12/30 08:09:35;;;;;;;36.75;16.38;;;0.30;82.10;;;;;;5035412;28;20032;-80
2021/12/30 08:12:01;;;;;;;38.42;16.70;;;0.30;81.50;;;;;;5037693;28;20073;-80
2021/12/30 08:14:27;;;;;;;39.03;16.83;;;0.30;80.80;;;;;;5037503;28;20395;-80
2021/12/30 08:16:53;;;;;;;40.55;16.90;;;0.30;81.20;;;;;;5038651;28;20026;-80
2021/12/30 08:19:19;;;;;;;39.22;17.15;;;0.30;81.80;;;;;;5037849;28;20036;-81
2021/12/30 08:21:45;;;;;;;44.47;15.70;;;0.30;82.00;;;;;;5038629;28;20383;-79
2021/12/30 08:24:11;;;;;;;43.90;17.42;;;0.50;82.70;;;;;;5052069;28;20376;-82
2021/12/30 08:26:37;;;;;;;38.92;16.98;;;0.70;82.30;;;;;;5053205;28;20029;-80
2021/12/30 08:29:04;;;;;;;41.55;18.42;;;0.70;82.20;;;;;;5052569;28;20352;-80
2021/12/30 08:31:30;;;;;;;39.88;16.92;;;0.80;81.90;;;;;;5044461;28;20164;-81
2021/12/30 08:33:55;;;;;;;30.10;14.38;;;0.80;81.90;;;;;;5034876;28;20061;-81
2021/12/30 08:36:21;;;;;;;30.40;12.65;;;0.70;81.80;;;;;;5035037;28;20030;-82
2021/12/30 08:38:47;;;;;;;38.90;26.98;;;0.60;81.90;;;;;;5050380;28;20033;-84
2021/12/30 08:41:13;;;;;;;36.15;15.90;;;0.50;80.40;;;;;;5047188;28;20071;-81
2021/12/30 08:43:38;;;;;;;34.83;14.82;;;0.60;80.40;;;;;;5052840;28;20039;-80
2021/12/30 08:46:04;;;;;;;38.72;16.23;;;0.60;81.10;;;;;;5045257;28;20051;-81
2021/12/30 08:48:30;;;;;;;41.45;18.27;;;0.70;81.50;;;;;;5047210;28;20026;-81
2021/12/30 08:50:56;;;;;;;48.97;19.95;;;0.70;82.10;;;;;;5044420;28;20082;-81
2021/12/30 08:53:25;;;;;;;36.05;16.13;;;0.70;82.40;;;;;;5047404;28;20029;-81
2021/12/30 08:55:52;;;;;;;40.25;16.67;;;0.90;82.90;;;;;;5048853;28;20025;-81
2021/12/30 08:58:18;;;;;;;37.92;17.15;;;1.00;82.90;;;;;;5041632;28;20033;-79
2021/12/30 09:00:46;;;;;;;42.92;16.52;;;1.10;82.40;;;;;;5040326;28;20486;-80
2021/12/30 09:03:13;;;;;;;33.03;16.42;;;1.00;82.10;;;;;;5041612;28;20390;-82
2021/12/30 09:05:40;;;;;;;32.15;15.38;;;1.00;82.10;;;;;;5039797;28;20124;-79
2021/12/30 09:08:06;;;;;;;34.55;16.65;;;0.90;82.80;;;;;;5045721;28;20437;-80
2021/12/30 09:10:40;;;;;;;52.22;37.30;;;1.00;83.00;;;;;;5041620;28;20034;-79
2021/12/30 09:13:08;;;;;;;36.88;15.35;;;1.00;81.30;;;;;;5035332;28;20085;-77
2021/12/30 09:15:34;;;;;;;37.88;16.88;;;1.10;81.20;;;;;;5035369;28;20033;-82
2021/12/30 09:18:01;;;;;;;41.40;17.65;;;1.10;81.70;;;;;;5044937;28;20029;-77
2021/12/30 09:20:27;;;;;;;57.15;39.33;;;1.20;82.00;;;;;;5041367;28;20171;-77
2021/12/30 09:22:54;;;;;;;41.10;18.80;;;1.30;80.00;;;;;;5036965;28;20112;-79
2021/12/30 09:25:23;;;;;;;48.25;18.85;;;1.20;79.20;;;;;;5044934;28;20051;-79
2021/12/30 09:27:49;;;;;;;38.60;17.52;;;1.10;79.90;;;;;;5036993;28;20471;-79
2021/12/30 09:30:16;;;;;;;33.45;15.60;;;0.90;80.50;;;;;;5049403;28;20032;-79
2021/12/30 09:32:43;;;;;;;53.05;37.40;;;0.90;81.60;;;;;;5036257;28;20034;-83
2021/12/30 09:35:10;;;;;;;56.08;38.47;;;1.10;80.60;;;;;;5035497;28;20429;-78
2021/12/30 09:37:36;;;;;;;42.42;18.20;;;1.10;78.10;;;;;;5034072;28;20037;-80
2021/12/30 09:40:04;;;;;;;37.35;16.48;;;1.10;77.80;;;;;;5047203;28;20029;-82
2021/12/30 09:42:30;;;;;;;41.97;16.73;;;0.90;78.70;;;;;;5041324;28;20530;-82
2021/12/30 09:44:56;;;;;;;37.42;17.55;;;0.90;79.70;;;;;;5032645;28;20072;-79
2021/12/30 09:47:22;;;;;;;41.72;19.05;;;0.90;80.30;;;;;;5037530;28;20128;-82
2021/12/30 09:49:52;;;;;;;49.47;19.00;;;0.90;80.80;;;;;;5044861;28;20025;-78
2021/12/30 09:52:18;;;;;;;42.55;18.77;;;0.90;80.60;;;;;;5041761;28;20079;-82
2021/12/30 09:54:43;;;;;;;35.80;15.30;;;0.80;80.70;;;;;;5050304;28;20025;-78
2021/12/30 09:57:09;;;;;;;27.30;11.57;;;0.70;80.90;;;;;;5049194;28;20109;-80
2021/12/30 09:59:35;;;;;;;33.33;14.48;;;0.80;81.10;;;;;;5044195;28;20040;-79
2021/12/30 10:02:01;;;;;;;33.22;14.98;;;0.80;80.90;;;;;;5051203;28;20075;-79
2021/12/30 10:04:32;;;;;;;34.42;16.20;;;0.80;80.50;;;;;;5041953;28;20026;-78
2021/12/30 10:06:59;;;;;;;36.58;16.33;;;0.80;80.60;;;;;;5044043;28;20082;-80
2021/12/30 10:09:49;;;;;;;42.30;16.77;;;0.70;80.80;;;;;;5049247;28;20029;-78
2021/12/30 10:12:15;;;;;;;32.10;14.75;;;0.70;81.00;;;;;;5051646;28;20057;-79
2021/12/30 10:14:41;;;;;;;37.55;17.25;;;0.60;81.10;;;;;;5034937;28;20365;-75
2021/12/30 10:17:16;;;;;;;37.92;17.40;;;0.60;81.60;;;;;;5042348;28;20039;-78
2021/12/30 10:19:42;;;;;;;35.20;16.73;;;0.60;81.60;;;;;;5045721;28;20033;-78
2021/12/30 10:22:12;;;;;;;28.70;15.57;;;0.60;81.70;;;;;;5038165;28;20033;-79
2021/12/30 10:24:38;;;;;;;36.85;15.45;;;0.60;81.90;;;;;;5040545;28;20387;-78
2021/12/30 10:27:04;;;;;;;36.40;15.60;;;0.60;82.20;;;;;;5051379;28;20037;-79
2021/12/30 10:29:47;;;;;;;73.47;41.25;;;0.70;81.70;;;;;;5048700;28;20144;-81
2021/12/30 10:32:21;;;;;;;36.58;16.48;;;0.70;81.90;;;;;;5037548;28;20025;-79
2021/12/30 10:35:06;;;;;;;31.90;14.27;;;0.60;82.10;;;;;;5035544;28;20121;-75
2021/12/30 10:37:33;;;;;;;28.92;13.43;;;0.70;82.70;;;;;;5058904;28;20428;-77
2021/12/30 10:39:59;;;;;;;37.45;15.60;;;0.80;82.30;;;;;;5049579;28;20064;-78
2021/12/30 10:42:30;;;;;;;36.67;15.20;;;0.80;81.80;;;;;;5048010;28;20467;-78
2021/12/30 10:45:04;;;;;;;37.90;17.35;;;0.80;81.40;;;;;;5035893;28;20141;-81
2021/12/30 10:47:50;;;;;;;22.30;11.63;;;0.70;81.30;;;;;;5037878;28;20116;-80
2021/12/30 10:50:20;;;;;;;;;;;0.60;81.20;;;;;;5037246;28;20033;-77
2021/12/30 10:52:48;;;;;;;36.55;16.98;;;0.60;80.90;;;;;;5041333;28;19924;-78
2021/12/30 10:55:14;;;;;;;34.22;13.73;;;0.50;80.80;;;;;;5055036;28;20029;-83
2021/12/30 10:57:40;;;;;;;43.20;17.13;;;0.50;81.30;;;;;;5047105;28;20030;-82
2021/12/30 11:00:08;;;;;;;40.20;17.50;;;0.40;81.30;;;;;;5044534;28;20471;-74
2021/12/30 11:02:35;;;;;;;49.45;20.67;;;0.40;81.60;;;;;;5044897;28;20099;-77
2021/12/30 11:05:09;;;;;;;41.67;19.35;;;0.40;81.80;;;;;;5047732;28;20029;-79
2021/12/30 11:07:37;;;;;;;46.70;18.98;;;0.30;82.10;;;;;;5040029;28;20044;-76
2021/12/30 11:10:03;;;;;;;42.22;18.50;;;0.40;82.70;;;;;;5041491;28;20028;-78
2021/12/30 11:12:31;;;;;;;41.47;18.35;;;0.40;82.20;;;;;;5049778;28;20088;-75
2021/12/30 11:15:00;;;;;;;49.38;20.25;;;0.40;81.50;;;;;;5038572;28;20459;-82
2021/12/30 11:17:34;;;;;;;48.72;21.20;;;0.50;81.70;;;;;;5040320;28;20105;-82
2021/12/30 11:20:06;;;;;;;50.20;20.85;;;0.40;81.70;;;;;;5043656;28;20050;-79
2021/12/30 11:22:38;;;;;;;55.30;21.48;;;0.40;81.40;;;;;;5048571;28;20120;-79
2021/12/30 11:25:07;;;;;;;48.15;19.75;;;0.40;81.50;;;;;;5050283;28;20032;-79
2021/12/30 11:27:34;;;;;;;39.88;18.73;;;0.30;81.60;;;;;;5048037;28;20041;-79
2021/12/30 11:30:04;;;;;;;50.20;19.83;;;0.40;82.40;;;;;;5038997;28;20026;-79
2021/12/30 11:32:31;;;;;;;45.95;19.27;;;0.50;82.60;;;;;;5043829;28;20075;-81
2021/12/30 11:34:58;;;;;;;47.17;20.88;;;0.60;82.80;;;;;;5047807;28;20036;-77
2021/12/30 11:37:25;;;;;;;48.70;23.45;;;0.60;82.40;;;;;;5039638;28;20439;-79
2021/12/30 11:39:54;;;;;;;49.83;23.00;;;0.70;82.30;;;;;;5046365;28;20033;-79
2021/12/30 11:42:24;;;;;;;48.70;21.42;;;0.70;82.40;;;;;;5035671;28;20033;-76
2021/12/30 11:45:00;;;;;;;49.75;21.83;;;0.80;82.50;;;;;;5039717;28;20025;-79
2021/12/30 11:47:36;;;;;;;58.47;23.15;;;0.90;82.50;;;;;;5046511;28;20030;-80
2021/12/30 11:50:10;;;;;;;52.22;23.15;;;0.90;82.40;;;;;;5049257;28;20029;-80
2021/12/30 11:53:08;;;;;;;48.40;23.55;;;0.90;82.40;;;;;;5055982;28;20037;-81
2021/12/30 11:55:59;;;;;;;49.00;26.77;;;1.00;82.00;;;;;;5056137;28;20025;-80
2021/12/30 11:58:39;;;;;;;51.50;26.80;;;0.90;81.50;;;;;;5054830;28;20459;-79
2021/12/30 12:01:27;;;;;;;61.63;29.73;;;0.80;82.20;;;;;;5055462;28;20029;-83
2021/12/30 12:03:53;;;;;;;50.08;25.80;;;0.90;82.00;;;;;;5055463;28;20029;-76
2021/12/30 12:06:27;;;;;;;30.15;14.57;;;0.90;82.00;;;;;;5055638;28;20067;-78
2021/12/30 12:09:01;;;;;;;35.88;16.67;;;1.00;81.80;;;;;;5055543;28;20531;-80
2021/12/30 12:11:48;;;;;;;55.60;37.85;;;1.10;81.80;;;;;;5055497;28;20443;-76
2021/12/30 12:14:14;;;;;;;39.03;15.85;;;1.10;79.60;;;;;;5055880;28;20127;-76
2021/12/30 12:16:47;;;;;;;43.25;17.13;;;1.10;79.40;;;;;;5055616;28;20100;-81
2021/12/30 12:19:17;;;;;;;53.47;34.53;;;1.00;79.60;;;;;;5055321;28;20023;-80
2021/12/30 12:21:47;;;;;;;37.55;15.50;;;1.00;79.00;;;;;;5055478;28;20032;-79
2021/12/30 12:24:22;;;;;;;40.05;16.77;;;1.00;78.90;;;;;;5055118;28;20071;-79
2021/12/30 12:26:54;;;;;;;36.85;15.90;;;1.00;79.40;;;;;;5054339;28;20037;-80
2021/12/30 12:29:34;;;;;;;43.38;17.40;;;1.00;79.60;;;;;;5054635;28;20033;-78
2021/12/30 12:32:15;;;;;;;36.10;18.13;;;1.00;79.70;;;;;;5055315;28;20035;-78